sensor_id;sensor_type;location;lat;lon;timestamp;P1;durP1;ratioP1;P2;durP2;ratioP2
48268;SDS011;34088;52.232;5.196;2023-11-19T00:00:46;27.25;;;5.03;;
48268;SDS011;34088;52.232;5.196;2023-11-19T00:05:38;26.55;;;4.40;;
48268;SDS011;34088;52.232;5.196;2023-11-19T00:10:29;26.73;;;4.68;;
48268;SDS011;34088;52.232;5.196;2023-11-19T00:12:55;25.23;;;4.93;;
48268;SDS011;34088;52.232;5.196;2023-11-19T00:15:21;35.78;;;5.10;;
48268;SDS011;34088;52.232;5.196;2023-11-19T00:17:49;31.48;;;5.63;;
48268;SDS011;34088;52.232;5.196;2023-11-19T01:07:03;46.35;;;7.35;;
48268;SDS011;34088;52.232;5.196;2023-11-19T01:09:30;45.83;;;7.13;;
48268;SDS011;34088;52.232;5.196;2023-11-19T01:11:57;47.50;;;7.03;;
48268;SDS011;34088;52.232;5.196;2023-11-19T01:14:24;38.47;;;6.85;;
48268;SDS011;34088;52.232;5.196;2023-11-19T01:16:50;48.08;;;8.27;;
48268;SDS011;34088;52.232;5.196;2023-11-19T01:21:40;47.30;;;6.63;;
48268;SDS011;34088;52.232;5.196;2023-11-19T01:26:34;51.15;;;7.40;;
48268;SDS011;34088;52.232;5.196;2023-11-19T01:31:25;47.85;;;7.95;;
48268;SDS011;34088;52.232;5.196;2023-11-19T01:36:15;48.97;;;7.17;;
48268;SDS011;34088;52.232;5.196;2023-11-19T01:41:06;50.28;;;7.38;;
48268;SDS011;34088;52.232;5.196;2023-11-19T01:46:00;49.97;;;7.85;;
48268;SDS011;34088;52.232;5.196;2023-11-19T01:48:27;49.60;;;7.53;;
48268;SDS011;34088;52.232;5.196;2023-11-19T01:53:18;51.97;;;8.25;;
48268;SDS011;34088;52.232;5.196;2023-11-19T01:58:11;53.15;;;7.80;;
48268;SDS011;34088;52.232;5.196;2023-11-19T02:03:03;54.00;;;7.50;;
48268;SDS011;34088;52.232;5.196;2023-11-19T02:05:33;56.25;;;8.20;;
48268;SDS011;34088;52.232;5.196;2023-11-19T02:10:24;51.73;;;7.43;;
48268;SDS011;34088;52.232;5.196;2023-11-19T02:15:15;55.35;;;7.82;;
48268;SDS011;34088;52.232;5.196;2023-11-19T02:17:43;56.25;;;8.55;;
48268;SDS011;34088;52.232;5.196;2023-11-19T02:22:36;47.28;;;7.07;;
48268;SDS011;34088;52.232;5.196;2023-11-19T02:27:31;50.47;;;7.78;;
48268;SDS011;34088;52.232;5.196;2023-11-19T02:30:16;48.60;;;8.02;;
48268;SDS011;34088;52.232;5.196;2023-11-19T02:35:07;57.63;;;8.18;;
48268;SDS011;34088;52.232;5.196;2023-11-19T02:39:58;54.92;;;7.80;;
48268;SDS011;34088;52.232;5.196;2023-11-19T02:42:34;49.85;;;8.30;;
48268;SDS011;34088;52.232;5.196;2023-11-19T02:45:00;51.28;;;7.15;;
48268;SDS011;34088;52.232;5.196;2023-11-19T02:49:52;45.00;;;8.10;;
48268;SDS011;34088;52.232;5.196;2023-11-19T02:54:43;55.20;;;8.13;;
48268;SDS011;34088;52.232;5.196;2023-11-19T02:59:38;57.40;;;8.15;;
48268;SDS011;34088;52.232;5.196;2023-11-19T03:02:06;52.97;;;7.90;;
48268;SDS011;34088;52.232;5.196;2023-11-19T03:06:58;57.45;;;8.48;;
48268;SDS011;34088;52.232;5.196;2023-11-19T03:11:49;60.35;;;8.77;;
48268;SDS011;34088;52.232;5.196;2023-11-19T03:16:40;51.75;;;8.30;;
48268;SDS011;34088;52.232;5.196;2023-11-19T03:21:30;55.93;;;8.83;;
48268;SDS011;34088;52.232;5.196;2023-11-19T03:23:59;60.65;;;9.20;;
48268;SDS011;34088;52.232;5.196;2023-11-19T03:28:51;59.38;;;9.20;;
48268;SDS011;34088;52.232;5.196;2023-11-19T03:33:42;58.13;;;8.38;;
48268;SDS011;34088;52.232;5.196;2023-11-19T03:38:34;53.53;;;8.60;;
48268;SDS011;34088;52.232;5.196;2023-11-19T03:43:24;54.00;;;8.07;;
48268;SDS011;34088;52.232;5.196;2023-11-19T03:48:15;54.60;;;8.30;;
48268;SDS011;34088;52.232;5.196;2023-11-19T03:53:06;55.10;;;8.75;;
48268;SDS011;34088;52.232;5.196;2023-11-19T03:57:57;68.18;;;8.88;;
48268;SDS011;34088;52.232;5.196;2023-11-19T04:02:48;56.03;;;8.20;;
48268;SDS011;34088;52.232;5.196;2023-11-19T04:07:38;58.40;;;8.53;;
48268;SDS011;34088;52.232;5.196;2023-11-19T04:10:04;49.13;;;7.80;;
48268;SDS011;34088;52.232;5.196;2023-11-19T04:14:55;58.23;;;8.37;;
48268;SDS011;34088;52.232;5.196;2023-11-19T04:17:21;52.03;;;7.88;;
48268;SDS011;34088;52.232;5.196;2023-11-19T04:19:47;62.67;;;9.63;;
48268;SDS011;34088;52.232;5.196;2023-11-19T04:24:38;56.20;;;8.60;;
48268;SDS011;34088;52.232;5.196;2023-11-19T04:29:30;53.13;;;8.45;;
48268;SDS011;34088;52.232;5.196;2023-11-19T04:34:21;67.70;;;8.87;;
48268;SDS011;34088;52.232;5.196;2023-11-19T04:39:11;63.97;;;9.07;;
48268;SDS011;34088;52.232;5.196;2023-11-19T04:41:47;54.70;;;8.73;;
48268;SDS011;34088;52.232;5.196;2023-11-19T04:44:18;54.13;;;8.50;;
48268;SDS011;34088;52.232;5.196;2023-11-19T04:49:09;69.10;;;9.60;;
48268;SDS011;34088;52.232;5.196;2023-11-19T04:51:42;58.67;;;9.35;;
48268;SDS011;34088;52.232;5.196;2023-11-19T04:54:09;57.00;;;9.77;;
48268;SDS011;34088;52.232;5.196;2023-11-19T04:59:04;67.93;;;9.82;;
48268;SDS011;34088;52.232;5.196;2023-11-19T05:01:30;59.83;;;9.02;;
48268;SDS011;34088;52.232;5.196;2023-11-19T05:03:58;59.28;;;10.20;;
48268;SDS011;34088;52.232;5.196;2023-11-19T05:08:58;67.88;;;9.07;;
48268;SDS011;34088;52.232;5.196;2023-11-19T05:11:33;65.63;;;10.32;;
48268;SDS011;34088;52.232;5.196;2023-11-19T05:13:59;61.80;;;9.18;;
48268;SDS011;34088;52.232;5.196;2023-11-19T05:18:50;68.57;;;8.52;;
48268;SDS011;34088;52.232;5.196;2023-11-19T05:23:42;55.85;;;8.90;;
48268;SDS011;34088;52.232;5.196;2023-11-19T05:28:33;54.47;;;8.15;;
48268;SDS011;34088;52.232;5.196;2023-11-19T05:33:23;52.13;;;8.13;;
48268;SDS011;34088;52.232;5.196;2023-11-19T05:38:14;55.63;;;8.63;;
48268;SDS011;34088;52.232;5.196;2023-11-19T05:40:39;55.20;;;9.10;;
48268;SDS011;34088;52.232;5.196;2023-11-19T05:43:05;52.50;;;7.63;;
48268;SDS011;34088;52.232;5.196;2023-11-19T05:47:57;43.92;;;7.75;;
48268;SDS011;34088;52.232;5.196;2023-11-19T05:50:22;51.83;;;8.20;;
48268;SDS011;34088;52.232;5.196;2023-11-19T05:52:47;52.37;;;7.97;;
48268;SDS011;34088;52.232;5.196;2023-11-19T05:55:12;52.13;;;7.63;;
48268;SDS011;34088;52.232;5.196;2023-11-19T06:00:05;57.72;;;7.47;;
48268;SDS011;34088;52.232;5.196;2023-11-19T06:04:57;57.90;;;8.68;;
48268;SDS011;34088;52.232;5.196;2023-11-19T06:07:23;51.43;;;8.13;;
48268;SDS011;34088;52.232;5.196;2023-11-19T06:09:48;50.13;;;8.02;;
48268;SDS011;34088;52.232;5.196;2023-11-19T06:14:39;54.55;;;8.75;;
48268;SDS011;34088;52.232;5.196;2023-11-19T06:19:30;55.22;;;8.02;;
48268;SDS011;34088;52.232;5.196;2023-11-19T06:24:21;51.72;;;7.57;;
48268;SDS011;34088;52.232;5.196;2023-11-19T06:29:11;52.07;;;8.20;;
48268;SDS011;34088;52.232;5.196;2023-11-19T06:31:36;50.78;;;8.40;;
48268;SDS011;34088;52.232;5.196;2023-11-19T06:34:05;57.67;;;8.20;;
48268;SDS011;34088;52.232;5.196;2023-11-19T06:36:30;59.22;;;9.15;;
48268;SDS011;34088;52.232;5.196;2023-11-19T06:41:21;57.15;;;8.20;;
48268;SDS011;34088;52.232;5.196;2023-11-19T06:43:46;56.83;;;8.60;;
48268;SDS011;34088;52.232;5.196;2023-11-19T06:48:42;48.45;;;7.88;;
48268;SDS011;34088;52.232;5.196;2023-11-19T06:51:09;62.30;;;8.05;;
48268;SDS011;34088;52.232;5.196;2023-11-19T06:56:00;62.42;;;7.88;;
48268;SDS011;34088;52.232;5.196;2023-11-19T06:58:26;57.45;;;8.73;;
48268;SDS011;34088;52.232;5.196;2023-11-19T07:03:16;51.73;;;7.83;;
48268;SDS011;34088;52.232;5.196;2023-11-19T07:05:42;48.83;;;8.03;;
48268;SDS011;34088;52.232;5.196;2023-11-19T07:08:08;50.03;;;7.47;;
48268;SDS011;34088;52.232;5.196;2023-11-19T07:10:34;46.88;;;7.43;;
48268;SDS011;34088;52.232;5.196;2023-11-19T07:15:24;55.35;;;7.13;;
48268;SDS011;34088;52.232;5.196;2023-11-19T07:20:15;50.70;;;8.32;;
48268;SDS011;34088;52.232;5.196;2023-11-19T07:25:10;48.75;;;7.40;;
48268;SDS011;34088;52.232;5.196;2023-11-19T07:27:37;56.88;;;8.52;;
48268;SDS011;34088;52.232;5.196;2023-11-19T07:30:03;60.75;;;9.45;;
48268;SDS011;34088;52.232;5.196;2023-11-19T07:32:29;58.63;;;8.70;;
48268;SDS011;34088;52.232;5.196;2023-11-19T07:34:55;47.42;;;8.38;;
48268;SDS011;34088;52.232;5.196;2023-11-19T07:37:21;50.97;;;8.68;;
48268;SDS011;34088;52.232;5.196;2023-11-19T07:42:12;58.20;;;9.13;;
48268;SDS011;34088;52.232;5.196;2023-11-19T07:47:03;51.10;;;7.57;;
48268;SDS011;34088;52.232;5.196;2023-11-19T07:49:28;54.17;;;7.93;;
48268;SDS011;34088;52.232;5.196;2023-11-19T07:51:53;49.63;;;7.63;;
48268;SDS011;34088;52.232;5.196;2023-11-19T07:56:46;59.92;;;9.32;;
48268;SDS011;34088;52.232;5.196;2023-11-19T08:01:36;45.60;;;7.43;;
48268;SDS011;34088;52.232;5.196;2023-11-19T08:04:02;55.95;;;7.97;;
48268;SDS011;34088;52.232;5.196;2023-11-19T08:08:52;53.25;;;7.45;;
48268;SDS011;34088;52.232;5.196;2023-11-19T08:13:44;56.92;;;9.10;;
48268;SDS011;34088;52.232;5.196;2023-11-19T08:18:35;56.40;;;9.13;;
48268;SDS011;34088;52.232;5.196;2023-11-19T08:23:26;52.33;;;8.18;;
48268;SDS011;34088;52.232;5.196;2023-11-19T08:25:53;54.75;;;8.73;;
48268;SDS011;34088;52.232;5.196;2023-11-19T08:30:44;52.05;;;7.93;;
48268;SDS011;34088;52.232;5.196;2023-11-19T08:35:35;56.03;;;9.00;;
48268;SDS011;34088;52.232;5.196;2023-11-19T08:40:26;50.90;;;8.00;;
48268;SDS011;34088;52.232;5.196;2023-11-19T08:45:17;49.27;;;8.27;;
48268;SDS011;34088;52.232;5.196;2023-11-19T08:47:42;44.73;;;7.83;;
48268;SDS011;34088;52.232;5.196;2023-11-19T08:50:10;53.20;;;8.27;;
48268;SDS011;34088;52.232;5.196;2023-11-19T08:55:01;52.97;;;8.63;;
48268;SDS011;34088;52.232;5.196;2023-11-19T08:57:27;49.50;;;8.52;;
48268;SDS011;34088;52.232;5.196;2023-11-19T09:02:17;45.27;;;7.93;;
48268;SDS011;34088;52.232;5.196;2023-11-19T09:07:08;54.70;;;8.23;;
48268;SDS011;34088;52.232;5.196;2023-11-19T09:09:37;49.20;;;8.20;;
48268;SDS011;34088;52.232;5.196;2023-11-19T09:14:31;57.17;;;8.93;;
48268;SDS011;34088;52.232;5.196;2023-11-19T09:19:21;40.40;;;7.85;;
48268;SDS011;34088;52.232;5.196;2023-11-19T09:24:13;52.38;;;8.50;;
48268;SDS011;34088;52.232;5.196;2023-11-19T09:29:06;47.90;;;8.52;;
48268;SDS011;34088;52.232;5.196;2023-11-19T09:31:32;43.90;;;7.60;;
48268;SDS011;34088;52.232;5.196;2023-11-19T09:36:23;51.53;;;8.07;;
48268;SDS011;34088;52.232;5.196;2023-11-19T09:41:13;45.53;;;7.77;;
48268;SDS011;34088;52.232;5.196;2023-11-19T09:46:05;51.33;;;7.75;;
48268;SDS011;34088;52.232;5.196;2023-11-19T09:48:34;49.13;;;7.90;;
48268;SDS011;34088;52.232;5.196;2023-11-19T09:51:05;61.22;;;8.55;;
48268;SDS011;34088;52.232;5.196;2023-11-19T09:53:31;51.35;;;7.50;;
48268;SDS011;34088;52.232;5.196;2023-11-19T09:55:58;48.88;;;7.90;;
48268;SDS011;34088;52.232;5.196;2023-11-19T09:58:27;53.47;;;8.05;;
48268;SDS011;34088;52.232;5.196;2023-11-19T10:03:18;45.53;;;7.47;;
48268;SDS011;34088;52.232;5.196;2023-11-19T10:08:09;48.70;;;8.55;;
48268;SDS011;34088;52.232;5.196;2023-11-19T10:10:36;47.70;;;7.97;;
48268;SDS011;34088;52.232;5.196;2023-11-19T10:15:26;46.42;;;7.50;;
48268;SDS011;34088;52.232;5.196;2023-11-19T10:20:19;50.30;;;7.75;;
48268;SDS011;34088;52.232;5.196;2023-11-19T10:25:27;51.67;;;8.13;;
48268;SDS011;34088;52.232;5.196;2023-11-19T10:27:53;46.92;;;7.30;;
48268;SDS011;34088;52.232;5.196;2023-11-19T10:30:27;44.95;;;8.50;;
48268;SDS011;34088;52.232;5.196;2023-11-19T10:35:30;47.13;;;6.82;;
48268;SDS011;34088;52.232;5.196;2023-11-19T10:40:23;51.78;;;9.52;;
48268;SDS011;34088;52.232;5.196;2023-11-19T10:43:02;41.58;;;6.90;;
48268;SDS011;34088;52.232;5.196;2023-11-19T10:45:28;50.40;;;7.80;;
48268;SDS011;34088;52.232;5.196;2023-11-19T10:50:19;46.78;;;7.45;;
48268;SDS011;34088;52.232;5.196;2023-11-19T10:55:11;49.17;;;8.15;;
48268;SDS011;34088;52.232;5.196;2023-11-19T10:57:39;43.65;;;7.50;;
48268;SDS011;34088;52.232;5.196;2023-11-19T11:00:11;37.10;;;6.72;;
48268;SDS011;34088;52.232;5.196;2023-11-19T11:02:43;50.97;;;7.38;;
48268;SDS011;34088;52.232;5.196;2023-11-19T11:05:14;35.50;;;6.57;;
48268;SDS011;34088;52.232;5.196;2023-11-19T11:07:41;35.30;;;6.28;;
48268;SDS011;34088;52.232;5.196;2023-11-19T11:10:09;43.67;;;8.00;;
48268;SDS011;34088;52.232;5.196;2023-11-19T11:12:36;44.70;;;6.72;;
48268;SDS011;34088;52.232;5.196;2023-11-19T11:15:06;39.40;;;6.93;;
48268;SDS011;34088;52.232;5.196;2023-11-19T11:17:33;39.28;;;7.10;;
48268;SDS011;34088;52.232;5.196;2023-11-19T11:22:24;47.35;;;7.32;;
48268;SDS011;34088;52.232;5.196;2023-11-19T11:30:10;36.60;;;6.95;;
48268;SDS011;34088;52.232;5.196;2023-11-19T11:35:49;38.35;;;7.32;;
48268;SDS011;34088;52.232;5.196;2023-11-19T11:41:19;36.22;;;6.32;;
48268;SDS011;34088;52.232;5.196;2023-11-19T11:43:48;36.83;;;6.38;;
48268;SDS011;34088;52.232;5.196;2023-11-19T11:49:07;39.53;;;6.55;;
48268;SDS011;34088;52.232;5.196;2023-11-19T11:54:07;37.80;;;6.45;;
48268;SDS011;34088;52.232;5.196;2023-11-19T11:59:01;26.45;;;5.47;;
48268;SDS011;34088;52.232;5.196;2023-11-19T12:03:55;34.47;;;7.07;;
48268;SDS011;34088;52.232;5.196;2023-11-19T12:06:21;41.33;;;6.72;;
48268;SDS011;34088;52.232;5.196;2023-11-19T12:11:12;42.73;;;6.87;;
48268;SDS011;34088;52.232;5.196;2023-11-19T12:16:17;46.05;;;8.10;;
48268;SDS011;34088;52.232;5.196;2023-11-19T12:21:08;46.10;;;7.22;;
48268;SDS011;34088;52.232;5.196;2023-11-19T12:23:35;47.67;;;7.90;;
48268;SDS011;34088;52.232;5.196;2023-11-19T12:26:09;46.90;;;7.80;;
48268;SDS011;34088;52.232;5.196;2023-11-19T12:28:57;44.35;;;7.35;;
48268;SDS011;34088;52.232;5.196;2023-11-19T12:33:50;45.50;;;7.77;;
48268;SDS011;34088;52.232;5.196;2023-11-19T12:36:17;45.75;;;7.18;;
48268;SDS011;34088;52.232;5.196;2023-11-19T12:41:10;34.25;;;6.85;;
48268;SDS011;34088;52.232;5.196;2023-11-19T12:46:03;31.95;;;6.28;;
48268;SDS011;34088;52.232;5.196;2023-11-19T12:48:41;32.58;;;6.07;;
48268;SDS011;34088;52.232;5.196;2023-11-19T12:53:46;27.17;;;5.53;;
48268;SDS011;34088;52.232;5.196;2023-11-19T12:56:13;38.08;;;6.35;;
48268;SDS011;34088;52.232;5.196;2023-11-19T13:01:06;24.73;;;4.90;;
48268;SDS011;34088;52.232;5.196;2023-11-19T13:06:05;29.15;;;5.03;;
48268;SDS011;34088;52.232;5.196;2023-11-19T13:11:13;24.15;;;4.22;;
48268;SDS011;34088;52.232;5.196;2023-11-19T13:16:20;29.08;;;5.47;;
48268;SDS011;34088;52.232;5.196;2023-11-19T13:21:10;26.13;;;4.87;;
48268;SDS011;34088;52.232;5.196;2023-11-19T13:26:01;32.40;;;5.70;;
48268;SDS011;34088;52.232;5.196;2023-11-19T13:30:52;35.70;;;6.00;;
48268;SDS011;34088;52.232;5.196;2023-11-19T13:35:43;38.53;;;6.22;;
48268;SDS011;34088;52.232;5.196;2023-11-19T13:40:34;32.27;;;6.10;;
48268;SDS011;34088;52.232;5.196;2023-11-19T13:45:25;38.80;;;7.22;;
48268;SDS011;34088;52.232;5.196;2023-11-19T13:50:15;41.80;;;7.72;;
48268;SDS011;34088;52.232;5.196;2023-11-19T13:52:45;43.00;;;8.07;;
48268;SDS011;34088;52.232;5.196;2023-11-19T13:55:12;36.83;;;8.38;;
48268;SDS011;34088;52.232;5.196;2023-11-19T13:57:38;41.63;;;8.27;;
48268;SDS011;34088;52.232;5.196;2023-11-19T14:00:05;39.65;;;7.07;;
48268;SDS011;34088;52.232;5.196;2023-11-19T14:02:32;39.70;;;6.57;;
48268;SDS011;34088;52.232;5.196;2023-11-19T14:04:58;37.80;;;6.95;;
48268;SDS011;34088;52.232;5.196;2023-11-19T14:09:49;41.17;;;8.20;;
48268;SDS011;34088;52.232;5.196;2023-11-19T14:14:40;34.17;;;6.60;;
48268;SDS011;34088;52.232;5.196;2023-11-19T14:17:07;42.90;;;6.95;;
48268;SDS011;34088;52.232;5.196;2023-11-19T14:21:57;39.43;;;6.23;;
48268;SDS011;34088;52.232;5.196;2023-11-19T14:26:49;39.00;;;7.35;;
48268;SDS011;34088;52.232;5.196;2023-11-19T14:29:16;41.80;;;7.15;;
48268;SDS011;34088;52.232;5.196;2023-11-19T14:34:06;39.33;;;7.60;;
48268;SDS011;34088;52.232;5.196;2023-11-19T14:38:57;39.13;;;6.28;;
48268;SDS011;34088;52.232;5.196;2023-11-19T14:41:23;36.92;;;7.35;;
48268;SDS011;34088;52.232;5.196;2023-11-19T14:46:14;34.50;;;6.23;;
48268;SDS011;34088;52.232;5.196;2023-11-19T14:51:04;38.83;;;7.03;;
48268;SDS011;34088;52.232;5.196;2023-11-19T14:55:55;44.53;;;6.95;;
48268;SDS011;34088;52.232;5.196;2023-11-19T15:00:46;36.45;;;6.47;;
48268;SDS011;34088;52.232;5.196;2023-11-19T15:05:37;40.35;;;6.88;;
48268;SDS011;34088;52.232;5.196;2023-11-19T15:10:28;41.03;;;6.72;;
48268;SDS011;34088;52.232;5.196;2023-11-19T15:15:19;41.17;;;6.97;;
48268;SDS011;34088;52.232;5.196;2023-11-19T15:20:10;38.73;;;6.30;;
48268;SDS011;34088;52.232;5.196;2023-11-19T15:22:38;43.45;;;7.53;;
48268;SDS011;34088;52.232;5.196;2023-11-19T15:27:31;47.78;;;6.75;;
48268;SDS011;34088;52.232;5.196;2023-11-19T15:32:21;37.80;;;6.70;;
48268;SDS011;34088;52.232;5.196;2023-11-19T15:37:11;42.87;;;7.47;;
48268;SDS011;34088;52.232;5.196;2023-11-19T15:39:39;38.33;;;6.10;;
48268;SDS011;34088;52.232;5.196;2023-11-19T15:44:29;39.50;;;7.03;;
48268;SDS011;34088;52.232;5.196;2023-11-19T15:49:20;40.35;;;6.90;;
48268;SDS011;34088;52.232;5.196;2023-11-19T15:54:10;41.07;;;7.13;;
48268;SDS011;34088;52.232;5.196;2023-11-19T15:59:01;37.10;;;7.80;;
48268;SDS011;34088;52.232;5.196;2023-11-19T16:03:53;49.45;;;7.47;;
48268;SDS011;34088;52.232;5.196;2023-11-19T16:08:43;41.40;;;7.03;;
48268;SDS011;34088;52.232;5.196;2023-11-19T16:13:34;41.72;;;8.10;;
48268;SDS011;34088;52.232;5.196;2023-11-19T16:18:25;38.23;;;7.53;;
48268;SDS011;34088;52.232;5.196;2023-11-19T16:23:15;37.13;;;6.73;;
48268;SDS011;34088;52.232;5.196;2023-11-19T16:25:42;42.42;;;7.75;;
48268;SDS011;34088;52.232;5.196;2023-11-19T16:30:33;37.17;;;7.83;;
48268;SDS011;34088;52.232;5.196;2023-11-19T16:35:24;30.53;;;6.33;;
48268;SDS011;34088;52.232;5.196;2023-11-19T16:37:50;38.97;;;7.63;;
48268;SDS011;34088;52.232;5.196;2023-11-19T16:42:42;34.33;;;6.13;;
48268;SDS011;34088;52.232;5.196;2023-11-19T16:47:36;37.03;;;7.28;;
48268;SDS011;34088;52.232;5.196;2023-11-19T16:52:28;36.20;;;6.30;;
48268;SDS011;34088;52.232;5.196;2023-11-19T16:57:22;42.60;;;8.70;;
48268;SDS011;34088;52.232;5.196;2023-11-19T17:02:20;36.63;;;7.22;;
48268;SDS011;34088;52.232;5.196;2023-11-19T17:07:11;42.80;;;8.07;;
48268;SDS011;34088;52.232;5.196;2023-11-19T17:12:02;32.72;;;7.32;;
48268;SDS011;34088;52.232;5.196;2023-11-19T17:16:52;44.10;;;8.13;;
48268;SDS011;34088;52.232;5.196;2023-11-19T17:21:43;41.53;;;7.53;;
48268;SDS011;34088;52.232;5.196;2023-11-19T17:24:08;37.80;;;7.78;;
48268;SDS011;34088;52.232;5.196;2023-11-19T17:28:59;37.95;;;6.30;;
48268;SDS011;34088;52.232;5.196;2023-11-19T17:33:49;31.33;;;6.47;;
48268;SDS011;34088;52.232;5.196;2023-11-19T17:38:40;37.67;;;6.95;;
48268;SDS011;34088;52.232;5.196;2023-11-19T17:43:30;33.40;;;6.10;;
48268;SDS011;34088;52.232;5.196;2023-11-19T17:48:24;49.60;;;8.30;;
48268;SDS011;34088;52.232;5.196;2023-11-19T17:53:15;30.13;;;6.60;;
48268;SDS011;34088;52.232;5.196;2023-11-19T17:58:05;28.83;;;6.40;;
48268;SDS011;34088;52.232;5.196;2023-11-19T18:00:32;30.92;;;6.90;;
48268;SDS011;34088;52.232;5.196;2023-11-19T18:05:22;34.05;;;7.07;;
48268;SDS011;34088;52.232;5.196;2023-11-19T18:10:13;29.77;;;7.03;;
48268;SDS011;34088;52.232;5.196;2023-11-19T18:12:39;39.35;;;7.65;;
48268;SDS011;34088;52.232;5.196;2023-11-19T18:17:30;36.20;;;7.00;;
48268;SDS011;34088;52.232;5.196;2023-11-19T18:19:56;34.35;;;6.80;;
48268;SDS011;34088;52.232;5.196;2023-11-19T18:24:47;37.42;;;6.95;;
48268;SDS011;34088;52.232;5.196;2023-11-19T18:29:38;40.77;;;7.53;;
48268;SDS011;34088;52.232;5.196;2023-11-19T18:32:05;44.22;;;7.97;;
48268;SDS011;34088;52.232;5.196;2023-11-19T18:34:34;37.70;;;7.75;;
48268;SDS011;34088;52.232;5.196;2023-11-19T18:39:24;37.03;;;6.97;;
48268;SDS011;34088;52.232;5.196;2023-11-19T18:41:50;42.97;;;8.53;;
48268;SDS011;34088;52.232;5.196;2023-11-19T18:46:41;35.38;;;6.25;;
48268;SDS011;34088;52.232;5.196;2023-11-19T18:53:59;43.25;;;7.65;;
48268;SDS011;34088;52.232;5.196;2023-11-19T18:58:50;51.63;;;7.82;;
48268;SDS011;34088;52.232;5.196;2023-11-19T19:03:42;42.35;;;6.60;;
48268;SDS011;34088;52.232;5.196;2023-11-19T19:08:33;37.17;;;7.03;;
48268;SDS011;34088;52.232;5.196;2023-11-19T19:13:24;44.17;;;7.03;;
48268;SDS011;34088;52.232;5.196;2023-11-19T19:18:15;35.30;;;6.07;;
48268;SDS011;34088;52.232;5.196;2023-11-19T19:23:05;37.70;;;6.83;;
48268;SDS011;34088;52.232;5.196;2023-11-19T19:25:31;44.00;;;8.47;;
48268;SDS011;34088;52.232;5.196;2023-11-19T19:30:22;40.38;;;8.00;;
48268;SDS011;34088;52.232;5.196;2023-11-19T19:32:48;43.38;;;7.68;;
48268;SDS011;34088;52.232;5.196;2023-11-19T19:37:38;46.90;;;6.97;;
48268;SDS011;34088;52.232;5.196;2023-11-19T19:42:30;48.53;;;7.80;;
48268;SDS011;34088;52.232;5.196;2023-11-19T19:47:21;36.88;;;6.65;;
48268;SDS011;34088;52.232;5.196;2023-11-19T19:52:12;40.50;;;6.63;;
48268;SDS011;34088;52.232;5.196;2023-11-19T19:57:02;32.13;;;6.57;;
48268;SDS011;34088;52.232;5.196;2023-11-19T20:01:53;44.53;;;7.03;;
48268;SDS011;34088;52.232;5.196;2023-11-19T20:06:44;39.95;;;6.80;;
48268;SDS011;34088;52.232;5.196;2023-11-19T20:11:38;36.08;;;6.70;;
48268;SDS011;34088;52.232;5.196;2023-11-19T20:16:29;40.50;;;6.20;;
48268;SDS011;34088;52.232;5.196;2023-11-19T20:21:20;32.70;;;5.63;;
48268;SDS011;34088;52.232;5.196;2023-11-19T20:26:10;44.97;;;5.93;;
48268;SDS011;34088;52.232;5.196;2023-11-19T20:28:42;39.33;;;6.63;;
48268;SDS011;34088;52.232;5.196;2023-11-19T20:31:09;34.85;;;6.32;;
48268;SDS011;34088;52.232;5.196;2023-11-19T20:36:00;38.60;;;6.67;;
48268;SDS011;34088;52.232;5.196;2023-11-19T20:40:50;41.17;;;6.57;;
48268;SDS011;34088;52.232;5.196;2023-11-19T20:45:40;28.43;;;6.53;;
48268;SDS011;34088;52.232;5.196;2023-11-19T20:48:07;40.20;;;7.53;;
48268;SDS011;34088;52.232;5.196;2023-11-19T20:52:59;30.60;;;5.40;;
48268;SDS011;34088;52.232;5.196;2023-11-19T20:57:50;31.85;;;5.10;;
48268;SDS011;34088;52.232;5.196;2023-11-19T21:00:18;29.63;;;4.80;;
48268;SDS011;34088;52.232;5.196;2023-11-19T21:05:09;26.13;;;4.55;;
48268;SDS011;34088;52.232;5.196;2023-11-19T21:09:59;28.63;;;5.07;;
48268;SDS011;34088;52.232;5.196;2023-11-19T21:14:50;26.93;;;5.53;;
48268;SDS011;34088;52.232;5.196;2023-11-19T21:19:40;25.67;;;4.50;;
48268;SDS011;34088;52.232;5.196;2023-11-19T21:22:07;30.35;;;5.28;;
48268;SDS011;34088;52.232;5.196;2023-11-19T21:26:57;34.37;;;5.13;;
48268;SDS011;34088;52.232;5.196;2023-11-19T21:31:48;29.23;;;4.60;;
48268;SDS011;34088;52.232;5.196;2023-11-19T21:36:39;32.92;;;5.30;;
48268;SDS011;34088;52.232;5.196;2023-11-19T21:41:31;28.50;;;4.95;;
48268;SDS011;34088;52.232;5.196;2023-11-19T21:46:21;23.30;;;4.87;;
48268;SDS011;34088;52.232;5.196;2023-11-19T21:51:12;25.08;;;4.45;;
48268;SDS011;34088;52.232;5.196;2023-11-19T21:56:04;28.03;;;4.60;;
48268;SDS011;34088;52.232;5.196;2023-11-19T22:00:56;26.75;;;4.93;;
48268;SDS011;34088;52.232;5.196;2023-11-19T22:05:47;25.27;;;4.13;;
48268;SDS011;34088;52.232;5.196;2023-11-19T22:10:40;22.83;;;3.72;;
48268;SDS011;34088;52.232;5.196;2023-11-19T22:15:30;24.80;;;4.37;;
48268;SDS011;34088;52.232;5.196;2023-11-19T22:20:22;29.10;;;4.65;;
48268;SDS011;34088;52.232;5.196;2023-11-19T22:25:12;22.00;;;4.22;;
48268;SDS011;34088;52.232;5.196;2023-11-19T22:30:03;27.65;;;4.75;;
48268;SDS011;34088;52.232;5.196;2023-11-19T22:34:54;21.40;;;3.83;;
48268;SDS011;34088;52.232;5.196;2023-11-19T22:39:45;27.35;;;4.13;;
48268;SDS011;34088;52.232;5.196;2023-11-19T22:44:36;25.15;;;4.05;;
48268;SDS011;34088;52.232;5.196;2023-11-19T22:47:03;23.52;;;3.53;;
48268;SDS011;34088;52.232;5.196;2023-11-19T22:51:53;22.33;;;4.03;;
48268;SDS011;34088;52.232;5.196;2023-11-19T22:56:44;27.02;;;4.15;;
48268;SDS011;34088;52.232;5.196;2023-11-19T23:01:35;34.50;;;4.43;;
48268;SDS011;34088;52.232;5.196;2023-11-19T23:06:25;28.30;;;4.53;;
48268;SDS011;34088;52.232;5.196;2023-11-19T23:11:16;26.33;;;4.03;;
48268;SDS011;34088;52.232;5.196;2023-11-19T23:13:41;25.77;;;4.18;;
48268;SDS011;34088;52.232;5.196;2023-11-19T23:18:32;26.75;;;4.32;;
48268;SDS011;34088;52.232;5.196;2023-11-19T23:23:24;27.42;;;4.25;;
48268;SDS011;34088;52.232;5.196;2023-11-19T23:28:15;27.17;;;4.50;;
48268;SDS011;34088;52.232;5.196;2023-11-19T23:33:05;24.33;;;3.67;;
48268;SDS011;34088;52.232;5.196;2023-11-19T23:37:57;26.38;;;3.55;;
48268;SDS011;34088;52.232;5.196;2023-11-19T23:42:48;23.45;;;3.58;;
48268;SDS011;34088;52.232;5.196;2023-11-19T23:47:38;30.63;;;4.22;;
48268;SDS011;34088;52.232;5.196;2023-11-19T23:52:30;30.55;;;4.65;;
48268;SDS011;34088;52.232;5.196;2023-11-19T23:54:56;27.15;;;4.40;;
48268;SDS011;34088;52.232;5.196;2023-11-19T23:59:47;33.10;;;4.67;;
